Time;durP1;ratioP1;P1;durP2;ratioP2;P2;SDS_P1;SDS_P2;PMS_P1;PMS_P2;Temp;Humidity;BMP_temperature;BMP_pressure;BME280_temperature;BME280_humidity;BME280_pressure;Samples;Min_cycle;Max_cycle;Signal;HPM_P1;HPM_P2
2023/03/06 00:00:52;;;;;;;49.45;23.02;;;;;;;8.42;86.51;100040.25;4952774;28;20051;-66
2023/03/06 00:03:22;;;;;;;47.05;22.65;;;;;;;8.42;86.75;100044.91;4954033;29;20051;-66
2023/03/06 00:05:50;;;;;;;48.55;23.88;;;;;;;8.39;86.63;100049.00;4954843;29;20055;-67
2023/03/06 00:08:18;;;;;;;55.25;23.80;;;;;;;8.32;87.06;100040.31;4954820;29;20379;-67
2023/03/06 00:10:46;;;;;;;45.70;22.00;;;;;;;8.26;87.38;100034.03;4955065;29;20058;-67
2023/03/06 00:13:18;;;;;;;47.55;24.58;;;;;;;8.27;87.71;100046.56;4945922;28;20062;-66
2023/03/06 00:15:47;;;;;;;51.95;22.15;;;;;;;8.28;87.97;100034.59;4938174;28;20060;-67
2023/03/06 00:18:15;;;;;;;50.30;22.98;;;;;;;8.18;87.58;100029.16;4940777;29;20050;-67
2023/03/06 00:20:44;;;;;;;52.47;23.27;;;;;;;8.15;88.13;100037.88;4950872;29;20043;-67
2023/03/06 00:23:12;;;;;;;48.80;22.40;;;;;;;8.08;88.64;100021.84;4943434;29;20058;-67
2023/03/06 00:25:45;;;;;;;50.60;25.70;;;;;;;8.14;88.66;100015.28;4941636;29;20073;-67
2023/03/06 00:28:14;;;;;;;48.05;22.45;;;;;;;8.19;88.77;100036.25;4947582;28;20502;-66
2023/03/06 00:30:44;;;;;;;45.10;21.88;;;;;;;8.13;89.13;100026.44;4939195;29;20059;-67
2023/03/06 00:33:12;;;;;;;53.13;22.63;;;;;;;8.16;88.57;100031.38;4935979;29;20058;-67
2023/03/06 00:35:41;;;;;;;53.05;25.75;;;;;;;8.17;88.60;100027.53;4935509;29;20056;-67
2023/03/06 00:38:11;;;;;;;51.03;24.92;;;;;;;8.17;88.53;100022.09;4951141;29;20047;-67
2023/03/06 00:40:39;;;;;;;50.15;23.85;;;;;;;8.06;87.88;100024.84;4929071;29;20048;-67
2023/03/06 00:43:07;;;;;;;51.90;25.00;;;;;;;8.09;88.74;100018.03;4919014;29;20063;-66
2023/03/06 00:45:35;;;;;;;55.83;24.30;;;;;;;8.15;88.34;100018.81;4935269;29;20417;-67
2023/03/06 00:48:04;;;;;;;51.75;24.05;;;;;;;8.15;88.29;100013.34;4935162;29;20133;-66
2023/03/06 00:50:34;;;;;;;48.60;23.48;;;;;;;8.17;88.43;100011.19;4918445;29;20055;-66
2023/03/06 00:53:01;;;;;;;42.83;21.50;;;;;;;8.28;87.57;100001.06;4948864;29;20055;-67
2023/03/06 00:55:30;;;;;;;42.75;23.35;;;;;;;8.34;86.99;100005.38;4946348;29;20047;-66
2023/03/06 00:57:57;;;;;;;52.78;22.88;;;;;;;8.50;86.43;99999.88;4952216;29;20070;-66
2023/03/06 01:00:27;;;;;;;46.75;21.83;;;;;;;8.60;84.54;99995.22;4922301;29;20074;-66
2023/03/06 01:02:55;;;;;;;49.65;21.77;;;;;;;8.64;84.97;99986.47;4918378;29;20403;-67
2023/03/06 01:05:23;;;;;;;49.25;20.52;;;;;;;8.78;84.80;99986.66;4936410;29;20527;-67
2023/03/06 01:07:51;;;;;;;44.45;21.58;;;;;;;9.05;83.19;99990.84;4934727;29;20059;-67
2023/03/06 01:10:19;;;;;;;43.75;22.02;;;;;;;9.03;82.88;99988.41;4947638;29;20059;-67
2023/03/06 01:12:47;;;;;;;48.20;21.65;;;;;;;9.06;82.79;99981.56;4920299;29;20694;-66
2023/03/06 01:15:15;;;;;;;41.70;21.35;;;;;;;9.09;83.03;99981.78;4921880;29;20406;-67
2023/03/06 01:17:43;;;;;;;43.50;20.92;;;;;;;9.04;82.73;99981.03;4949475;29;20082;-67
2023/03/06 01:20:16;;;;;;;44.25;21.20;;;;;;;8.99;82.75;99970.94;4935357;29;20052;-66
2023/03/06 01:22:44;;;;;;;42.75;21.23;;;;;;;8.64;84.36;99968.19;4939722;29;20070;-67
2023/03/06 01:25:12;;;;;;;44.13;21.25;;;;;;;8.68;85.08;99963.81;4934533;29;20529;-67
2023/03/06 01:27:40;;;;;;;52.03;22.83;;;;;;;8.67;85.36;99958.63;4944150;29;20047;-67
2023/03/06 01:30:11;;;;;;;45.17;22.25;;;;;;;8.80;84.56;99968.09;4957955;28;20047;-67
2023/03/06 01:32:38;;;;;;;47.33;22.83;;;;;;;8.72;84.59;99967.59;4952468;28;20524;-67
2023/03/06 01:35:07;;;;;;;47.85;23.38;;;;;;;8.76;84.97;99961.56;4955922;28;20043;-66
2023/03/06 01:37:36;;;;;;;49.47;23.17;;;;;;;8.80;84.43;99957.19;4964361;28;20054;-67
2023/03/06 01:40:06;;;;;;;46.22;23.30;;;;;;;8.72;85.16;99955.88;4936273;29;20058;-67
2023/03/06 01:42:34;;;;;;;49.88;22.65;;;;;;;8.58;85.68;99961.97;4936747;29;20062;-66
2023/03/06 01:45:07;;;;;;;50.03;23.85;;;;;;;8.66;85.44;99957.00;4952448;29;20095;-67
2023/03/06 01:47:35;;;;;;;51.83;22.65;;;;;;;8.43;86.13;99953.81;4936351;29;20058;-67
2023/03/06 01:50:03;;;;;;;48.65;23.77;;;;;;;8.47;86.14;99947.50;4964676;28;20054;-67
2023/03/06 01:52:47;;;;;;;49.28;23.77;;;;;;;8.64;86.23;99948.28;4955873;28;20050;-67
2023/03/06 01:55:24;;;;;;;54.45;23.67;;;;;;;8.53;84.66;99950.25;4934560;29;20055;-67
2023/03/06 01:57:56;;;;;;;44.55;22.90;;;;;;;8.66;84.47;99949.63;4934945;29;20047;-67
2023/03/06 02:00:27;;;;;;;46.53;22.02;;;;;;;8.76;84.17;99950.66;4916788;29;20059;-66
2023/03/06 02:03:11;;;;;;;45.95;22.02;;;;;;;8.84;82.92;99947.31;4935282;29;20060;-67
2023/03/06 02:05:40;;;;;;;41.22;21.05;;;;;;;8.86;82.83;99948.66;4934730;29;20060;-66
2023/03/06 02:08:12;;;;;;;41.53;21.05;;;;;;;8.90;82.32;99950.84;4937627;29;20431;-67
2023/03/06 02:11:06;;;;;;;42.50;20.08;;;;;;;8.90;81.87;99948.91;4947685;28;20051;-67
2023/03/06 02:13:35;;;;;;;38.97;20.53;;;;;;;9.01;81.32;99946.94;4938435;29;20408;-66
2023/03/06 02:16:03;;;;;;;46.17;19.02;;;;;;;9.06;81.05;99954.25;4940164;29;20778;-67
2023/03/06 02:18:33;;;;;;;38.50;19.75;;;;;;;9.10;80.26;99947.94;4948116;29;20043;-66
2023/03/06 02:21:05;;;;;;;46.50;20.23;;;;;;;9.17;80.14;99946.78;4950236;29;20051;-67
2023/03/06 02:23:55;;;;;;;46.22;19.27;;;;;;;9.33;80.29;99947.50;4934014;29;20062;-67
2023/03/06 02:26:25;;;;;;;38.30;19.15;;;;;;;9.18;80.55;99941.06;4918059;29;20054;-66
2023/03/06 02:28:56;;;;;;;43.60;20.67;;;;;;;9.21;79.99;99945.13;4917699;29;20052;-67
2023/03/06 02:31:27;;;;;;;45.53;19.08;;;;;;;9.26;79.86;99935.00;4901688;29;20052;-67
2023/03/06 02:34:01;;;;;;;40.50;18.33;;;;;;;9.12;81.62;99934.00;4917691;29;20059;-67
2023/03/06 02:36:32;;;;;;;41.27;19.37;;;;;;;9.09;81.27;99932.66;4934427;29;20056;-67
2023/03/06 02:39:01;;;;;;;39.50;18.33;;;;;;;9.15;81.35;99938.91;4934637;29;20044;-67
2023/03/06 02:41:28;;;;;;;41.10;18.98;;;;;;;9.09;81.98;99926.41;4935624;29;20772;-66
2023/03/06 02:43:56;;;;;;;39.28;20.58;;;;;;;9.09;81.52;99932.66;4934285;29;20074;-67
2023/03/06 02:46:24;;;;;;;44.38;18.67;;;;;;;9.14;81.21;99926.34;4917488;29;20059;-67
2023/03/06 02:48:52;;;;;;;41.30;20.33;;;;;;;9.20;82.09;99927.13;4917519;29;20083;-66
2023/03/06 02:51:22;;;;;;;41.15;19.67;;;;;;;9.11;81.92;99925.03;4921522;29;20043;-66
2023/03/06 02:53:49;;;;;;;43.50;20.67;;;;;;;9.05;82.27;99933.53;4939775;29;20046;-67
2023/03/06 02:56:18;;;;;;;47.85;20.38;;;;;;;9.05;81.80;99937.06;4957296;29;20047;-67
2023/03/06 02:58:46;;;;;;;44.33;21.08;;;;;;;9.24;80.94;99917.28;4939354;29;20407;-67
2023/03/06 03:01:14;;;;;;;43.03;19.73;;;;;;;9.05;83.04;99928.06;4939017;29;20047;-67
2023/03/06 03:03:43;;;;;;;42.28;20.10;;;;;;;8.93;82.76;99926.53;4938650;29;20051;-67
2023/03/06 03:06:12;;;;;;;44.70;20.95;;;;;;;8.85;83.76;99917.03;4938991;29;20051;-67
2023/03/06 03:08:40;;;;;;;42.80;20.60;;;;;;;8.78;84.05;99916.53;4956732;29;20043;-67
2023/03/06 03:11:09;;;;;;;43.03;20.23;;;;;;;8.84;83.53;99914.56;4939644;29;20070;-67
2023/03/06 03:13:39;;;;;;;44.72;22.33;;;;;;;8.83;83.48;99915.69;4939674;29;20035;-67
2023/03/06 03:16:14;;;;;;;44.97;20.80;;;;;;;8.81;83.55;99909.69;4939466;29;20058;-66
2023/03/06 03:18:52;;;;;;;44.33;21.48;;;;;;;8.76;83.53;99918.75;4927593;29;20055;-67
2023/03/06 03:21:22;;;;;;;36.05;20.02;;;;;;;8.78;83.50;99924.72;4920734;29;20040;-66
2023/03/06 03:23:49;;;;;;;43.65;20.83;;;;;;;8.67;84.39;99917.72;4938195;29;20062;-67
2023/03/06 03:26:21;;;;;;;43.60;21.95;;;;;;;8.64;84.73;99915.56;4936707;29;20051;-67
2023/03/06 03:29:12;;;;;;;45.47;21.15;;;;;;;8.71;84.08;99916.84;4921428;29;20052;-66
2023/03/06 03:31:40;;;;;;;45.22;20.45;;;;;;;8.79;83.79;99909.97;4921470;29;20052;-67
2023/03/06 03:34:08;;;;;;;47.70;22.33;;;;;;;8.91;83.05;99911.53;4948402;28;20051;-67
2023/03/06 03:36:39;;;;;;;40.75;21.58;;;;;;;8.92;83.08;99910.44;4957735;28;20413;-67
2023/03/06 03:39:09;;;;;;;40.75;20.50;;;;;;;8.86;84.04;99917.84;4957887;28;20056;-67
2023/03/06 03:41:37;;;;;;;41.53;20.83;;;;;;;8.84;83.95;99912.66;4955622;29;20054;-67
2023/03/06 03:44:08;;;;;;;44.72;20.38;;;;;;;8.87;83.67;99920.31;4936913;29;20403;-67
2023/03/06 03:46:37;;;;;;;38.83;20.42;;;;;;;8.79;84.44;99907.25;4937107;29;20582;-67
2023/03/06 03:49:10;;;;;;;44.20;20.77;;;;;;;8.79;84.35;99914.63;4920073;29;20059;-67
2023/03/06 03:51:38;;;;;;;40.40;19.52;;;;;;;8.96;83.46;99915.06;4930944;29;20051;-67
2023/03/06 03:54:06;;;;;;;39.83;18.45;;;;;;;9.04;81.99;99908.13;4933057;29;20054;-67
2023/03/06 03:56:40;;;;;;;40.83;19.13;;;;;;;9.15;80.95;99908.88;4941224;28;20506;-67
2023/03/06 03:59:14;;;;;;;37.13;19.45;;;;;;;9.31;81.09;99912.28;4957590;28;20043;-67
2023/03/06 04:01:56;;;;;;;42.83;18.85;;;;;;;9.25;80.54;99922.41;4942203;29;20402;-67
2023/03/06 04:04:24;;;;;;;43.47;19.73;;;;;;;9.16;79.79;99910.50;4930377;29;20067;-67
2023/03/06 04:06:52;;;;;;;41.17;18.38;;;;;;;9.00;79.65;99920.75;4919600;29;20055;-67
2023/03/06 04:09:20;;;;;;;39.90;19.25;;;;;;;9.01;80.19;99914.97;4945748;29;20047;-66
2023/03/06 04:11:48;;;;;;;43.40;18.00;;;;;;;9.06;80.28;99908.69;4938040;29;20062;-67
2023/03/06 04:14:16;;;;;;;44.03;18.80;;;;;;;9.14;80.63;99915.41;4938184;29;20059;-66
2023/03/06 04:16:44;;;;;;;43.90;19.70;;;;;;;9.08;80.40;99909.19;4937155;29;20039;-66
2023/03/06 04:19:12;;;;;;;39.05;19.27;;;;;;;8.99;80.20;99906.28;4942118;29;20379;-67
2023/03/06 04:21:40;;;;;;;42.35;20.60;;;;;;;9.19;81.60;99903.66;4930426;29;20508;-66
2023/03/06 04:24:08;;;;;;;42.78;20.13;;;;;;;9.12;80.64;99899.34;4921886;29;20067;-66
2023/03/06 04:26:36;;;;;;;36.55;17.92;;;;;;;9.07;80.27;99902.13;4953941;29;20062;-67
2023/03/06 04:29:05;;;;;;;42.67;19.45;;;;;;;9.16;80.26;99893.31;4937333;29;20051;-67
2023/03/06 04:31:33;;;;;;;42.13;19.60;;;;;;;9.22;79.66;99894.88;4937263;29;20043;-67
2023/03/06 04:34:01;;;;;;;49.80;19.98;;;;;;;9.25;79.99;99897.06;4953024;29;20059;-66
2023/03/06 04:36:32;;;;;;;40.58;20.08;;;;;;;9.38;79.87;99896.38;4922203;29;21624;-67
2023/03/06 04:39:05;;;;;;;41.10;20.17;;;;;;;9.43;78.98;99897.44;4938068;29;20038;-66
2023/03/06 04:41:34;;;;;;;44.13;20.85;;;;;;;9.31;80.25;99901.34;4953226;29;20051;-67
2023/03/06 04:44:02;;;;;;;46.55;19.25;;;;;;;9.26;81.03;99888.56;4954300;29;20063;-66
2023/03/06 04:46:31;;;;;;;39.03;19.42;;;;;;;9.02;80.80;99888.50;4940274;29;20052;-67
2023/03/06 04:48:59;;;;;;;38.08;19.05;;;;;;;9.10;80.96;99896.06;4944873;29;20047;-65
2023/03/06 04:51:27;;;;;;;43.22;20.70;;;;;;;9.17;81.09;99900.38;4939664;29;20491;-66
2023/03/06 04:53:55;;;;;;;40.85;19.35;;;;;;;9.20;80.30;99895.19;4934802;29;20051;-67
2023/03/06 04:56:23;;;;;;;38.35;18.85;;;;;;;9.14;80.62;99890.84;4936331;29;20906;-67
2023/03/06 04:58:50;;;;;;;48.28;21.35;;;;;;;9.02;81.81;99888.50;4935534;29;20048;-67
2023/03/06 05:01:18;;;;;;;41.60;20.13;;;;;;;8.92;82.37;99886.69;4935308;29;20066;-67
2023/03/06 05:03:48;;;;;;;44.17;17.77;;;;;;;8.94;81.52;99889.94;4930822;29;20051;-66
2023/03/06 05:06:16;;;;;;;36.10;18.85;;;;;;;9.01;81.18;99886.91;4950994;29;20069;-66
2023/03/06 05:08:44;;;;;;;48.75;20.42;;;;;;;9.05;81.18;99874.28;4938440;29;20055;-67
2023/03/06 05:11:12;;;;;;;36.72;18.73;;;;;;;9.05;81.25;99884.41;4934931;29;20056;-67
2023/03/06 05:13:40;;;;;;;44.78;19.63;;;;;;;8.79;81.01;99869.06;4935629;29;20475;-66
2023/03/06 05:16:08;;;;;;;41.25;18.90;;;;;;;8.98;80.73;99873.81;4934470;29;20055;-67
2023/03/06 05:18:36;;;;;;;39.65;18.27;;;;;;;8.62;82.24;99877.66;4945038;29;20051;-67
2023/03/06 05:21:05;;;;;;;39.47;18.25;;;;;;;8.77;81.73;99886.81;4946914;29;20044;-67
2023/03/06 05:23:35;;;;;;;46.75;19.90;;;;;;;8.71;81.87;99878.66;4962924;28;20063;-66
2023/03/06 05:26:13;;;;;;;41.17;18.30;;;;;;;8.79;82.28;99879.97;4971909;28;20059;-67
2023/03/06 05:28:41;;;;;;;47.05;18.95;;;;;;;8.85;81.87;99878.03;4953650;29;20059;-67
2023/03/06 05:31:09;;;;;;;36.28;17.67;;;;;;;8.91;82.32;99886.97;4954197;29;20055;-67
2023/03/06 05:33:37;;;;;;;38.47;18.83;;;;;;;8.86;81.62;99879.66;4949280;28;20047;-66
2023/03/06 05:36:07;;;;;;;41.70;18.98;;;;;;;8.91;80.51;99874.16;4960115;28;20043;-67
2023/03/06 05:38:36;;;;;;;40.28;18.85;;;;;;;8.98;82.49;99876.53;4971805;28;20062;-67
2023/03/06 05:41:04;;;;;;;43.70;19.33;;;;;;;9.01;80.96;99873.25;4972108;28;20498;-67
2023/03/06 05:43:31;;;;;;;42.15;20.20;;;;;;;8.99;82.32;99878.97;4973676;28;20077;-67
2023/03/06 05:46:05;;;;;;;45.47;21.77;;;;;;;8.98;81.89;99873.81;4973377;28;20393;-67
2023/03/06 05:48:34;;;;;;;47.47;21.65;;;;;;;8.92;83.11;99866.75;4973723;28;20054;-67
2023/03/06 05:51:03;;;;;;;52.05;22.38;;;;;;;8.96;82.71;99876.00;4972786;28;20057;-67
2023/03/06 05:53:31;;;;;;;45.85;20.90;;;;;;;8.78;82.23;99867.44;4973678;28;20512;-66
2023/03/06 05:56:03;;;;;;;42.67;23.23;;;;;;;8.79;82.71;99866.31;4972177;28;20043;-67
2023/03/06 05:58:33;;;;;;;45.40;21.60;;;;;;;8.70;83.28;99870.78;4972576;28;20498;-66
2023/03/06 06:01:27;;;;;;;45.17;21.38;;;;;;;9.00;82.56;99871.63;4966267;28;20058;-66
2023/03/06 06:03:55;;;;;;;46.00;19.03;;;;;;;8.97;82.20;99870.28;4956034;28;20047;-65
2023/03/06 06:06:23;;;;;;;42.40;20.70;;;;;;;8.98;83.40;99871.91;4952648;29;20062;-67
2023/03/06 06:08:50;;;;;;;43.42;21.90;;;;;;;8.87;83.54;99873.91;4951737;28;20062;-65
2023/03/06 06:11:19;;;;;;;49.63;24.67;;;;;;;8.90;84.09;99868.97;4941720;28;20051;-66
2023/03/06 06:13:48;;;;;;;54.00;24.70;;;;;;;8.77;85.16;99871.25;4951874;28;20047;-65
2023/03/06 06:16:17;;;;;;;52.15;24.90;;;;;;;8.89;85.23;99879.06;4952913;29;20062;-65
2023/03/06 06:18:45;;;;;;;48.05;24.95;;;;;;;8.89;84.70;99879.06;4952736;28;20390;-65
2023/03/06 06:21:14;;;;;;;50.30;24.65;;;;;;;9.01;83.98;99876.78;4952773;28;20055;-64
2023/03/06 06:23:42;;;;;;;56.95;27.08;;;;;;;9.03;85.20;99879.22;4944636;29;20063;-65
2023/03/06 06:26:10;;;;;;;57.47;27.50;;;;;;;8.89;85.43;99878.25;4949654;28;20132;-65
2023/03/06 06:28:38;;;;;;;53.70;26.25;;;;;;;9.07;85.37;99874.00;4955803;28;20051;-65
2023/03/06 06:31:08;;;;;;;56.03;27.50;;;;;;;9.16;84.55;99879.66;4956224;29;20047;-65
2023/03/06 06:33:37;;;;;;;57.88;29.58;;;;;;;9.17;85.63;99884.00;4954359;29;20039;-65
2023/03/06 06:36:13;;;;;;;65.80;36.53;;;;;;;8.99;86.53;99878.16;4952545;28;20051;-67
2023/03/06 06:38:42;;;;;;;72.00;37.95;;;;;;;9.21;84.85;99879.59;4956092;29;20499;-65
2023/03/06 06:41:10;;;;;;;64.75;31.67;;;;;;;9.14;85.41;99869.84;4955392;28;20055;-65
2023/03/06 06:43:58;;;;;;;60.10;28.60;;;;;;;9.22;84.61;99882.06;4956263;29;20047;-65
2023/03/06 06:46:26;;;;;;;62.00;28.73;;;;;;;9.21;85.92;99876.88;4954481;29;20050;-64
2023/03/06 06:49:15;;;;;;;53.55;28.00;;;;;;;9.14;86.56;99878.03;4957219;29;20051;-66
2023/03/06 06:51:43;;;;;;;59.38;27.95;;;;;;;9.21;84.92;99880.44;4956472;29;20054;-65
2023/03/06 06:54:11;;;;;;;52.55;26.05;;;;;;;9.11;84.92;99883.25;4939856;29;20055;-67
2023/03/06 06:56:39;;;;;;;58.53;27.00;;;;;;;9.31;84.33;99884.97;4956186;29;20051;-65
2023/03/06 06:59:07;;;;;;;54.55;23.60;;;;;;;9.19;84.90;99881.81;4939758;29;20063;-65
2023/03/06 07:01:43;;;;;;;51.20;25.05;;;;;;;9.08;84.53;99884.63;4956226;29;20410;-66
2023/03/06 07:04:12;;;;;;;50.42;25.55;;;;;;;9.36;84.47;99895.84;4956468;29;20549;-65
2023/03/06 07:06:41;;;;;;;46.92;23.95;;;;;;;9.43;83.82;99891.97;4956979;29;20047;-65
2023/03/06 07:09:11;;;;;;;50.50;25.05;;;;;;;9.71;83.35;99895.75;4956758;29;20046;-65
2023/03/06 07:11:40;;;;;;;51.47;25.20;;;;;;;9.75;82.18;99898.69;4955859;29;20059;-66
2023/03/06 07:14:07;;;;;;;56.15;24.98;;;;;;;9.81;81.22;99905.75;4955326;29;20058;-66
2023/03/06 07:16:35;;;;;;;50.47;23.42;;;;;;;9.83;81.28;99900.81;4955829;29;20043;-66
2023/03/06 07:19:03;;;;;;;57.08;27.60;;;;;;;9.93;80.59;99902.59;4956697;29;20059;-65
2023/03/06 07:21:31;;;;;;;56.67;28.10;;;;;;;9.80;79.98;99904.13;4955938;29;20058;-65
2023/03/06 07:24:00;;;;;;;55.13;27.55;;;;;;;9.97;79.87;99902.84;4956219;29;20517;-66
2023/03/06 07:26:28;;;;;;;60.72;27.80;;;;;;;9.80;79.97;99901.38;4956310;29;20047;-65
2023/03/06 07:28:56;;;;;;;49.83;25.67;;;;;;;9.93;80.92;99906.13;4955624;29;20059;-65
2023/03/06 07:31:26;;;;;;;49.17;21.75;;;;;;;10.09;78.58;99900.47;4955271;29;20513;-65
2023/03/06 07:33:54;;;;;;;48.70;23.77;;;;;;;9.76;79.72;99900.31;4955254;29;20066;-66
2023/03/06 07:36:23;;;;;;;48.90;24.60;;;;;;;10.01;81.01;99903.84;4956145;29;20050;-66
2023/03/06 07:38:51;;;;;;;47.75;24.33;;;;;;;10.30;79.05;99908.41;4954578;28;20051;-65
2023/03/06 07:41:19;;;;;;;47.70;24.08;;;;;;;10.48;78.71;99910.34;4955382;29;20075;-66
2023/03/06 07:43:49;;;;;;;50.25;24.05;;;;;;;10.18;78.96;99906.13;4954926;29;20043;-65
2023/03/06 07:46:18;;;;;;;48.80;23.10;;;;;;;10.12;79.98;99904.56;4955278;29;20055;-66
2023/03/06 07:48:46;;;;;;;48.60;23.58;;;;;;;10.02;79.13;99906.28;4955967;29;20506;-68
2023/03/06 07:51:19;;;;;;;52.97;24.70;;;;;;;9.86;80.52;99913.88;4938719;29;20050;-66
2023/03/06 07:53:47;;;;;;;50.78;24.02;;;;;;;10.02;81.39;99913.69;4938670;29;20434;-66
2023/03/06 07:56:15;;;;;;;50.90;24.95;;;;;;;9.74;80.95;99916.22;4955422;29;20071;-67
2023/03/06 07:58:46;;;;;;;51.95;24.48;;;;;;;9.92;81.63;99915.44;4955087;29;20054;-67
2023/03/06 08:01:16;;;;;;;54.17;24.75;;;;;;;9.92;83.06;99912.72;4955894;29;20395;-67
2023/03/06 08:03:45;;;;;;;57.20;26.25;;;;;;;10.17;81.05;99909.97;4955800;29;20047;-67
2023/03/06 08:06:16;;;;;;;52.72;24.63;;;;;;;9.93;81.78;99910.81;4955818;29;20055;-66
2023/03/06 08:08:45;;;;;;;52.33;27.02;;;;;;;10.07;81.58;99917.16;4954341;29;20059;-66
2023/03/06 08:11:15;;;;;;;52.63;24.60;;;;;;;10.09;81.57;99919.63;4937708;29;20047;-67
2023/03/06 08:13:43;;;;;;;56.80;26.08;;;;;;;10.51;79.59;99919.09;4954976;29;20047;-67
2023/03/06 08:16:12;;;;;;;58.60;27.40;;;;;;;10.48;79.85;99913.09;4955059;29;20061;-67
2023/03/06 08:18:41;;;;;;;49.08;25.10;;;;;;;10.67;80.03;99928.72;4954635;29;20055;-67
2023/03/06 08:21:15;;;;;;;54.90;26.77;;;;;;;10.59;80.04;99921.97;4954470;29;20058;-66
2023/03/06 08:23:43;;;;;;;50.80;25.13;;;;;;;10.96;79.07;99927.69;4954187;29;20071;-67
2023/03/06 08:26:15;;;;;;;58.63;26.92;;;;;;;11.16;77.03;99925.75;4954495;29;20051;-67
2023/03/06 08:28:43;;;;;;;54.97;27.58;;;;;;;11.25;76.26;99926.69;4955394;29;20039;-66
2023/03/06 08:31:26;;;;;;;52.33;25.42;;;;;;;10.69;78.43;99933.88;4954310;29;20162;-67
2023/03/06 08:33:57;;;;;;;52.58;24.33;;;;;;;10.85;78.36;99931.75;4955146;29;20054;-66
2023/03/06 08:36:25;;;;;;;52.72;26.10;;;;;;;10.94;78.67;99927.19;4954095;29;20055;-67
2023/03/06 08:38:53;;;;;;;54.50;26.45;;;;;;;10.74;78.33;99923.69;4954166;29;20066;-67
2023/03/06 08:41:21;;;;;;;51.70;26.13;;;;;;;10.99;79.09;99927.13;4937534;29;20398;-66
2023/03/06 08:43:49;;;;;;;53.67;26.00;;;;;;;11.37;76.86;99928.94;4954750;29;20055;-67
2023/03/06 08:46:19;;;;;;;53.25;26.05;;;;;;;11.69;74.51;99921.78;4953912;29;20398;-66
2023/03/06 08:48:48;;;;;;;46.70;25.02;;;;;;;11.72;76.28;99933.25;4954431;29;20406;-67
2023/03/06 08:51:17;;;;;;;60.80;27.23;;;;;;;11.82;74.04;99930.31;4954101;29;20521;-67
2023/03/06 08:53:45;;;;;;;52.17;25.73;;;;;;;12.09;73.32;99935.00;4954798;29;20069;-67
2023/03/06 08:56:25;;;;;;;57.00;27.40;;;;;;;12.12;74.38;99932.78;4954622;29;20047;-66
2023/03/06 08:58:54;;;;;;;62.80;26.10;;;;;;;11.68;75.09;99938.50;4953901;29;20066;-66
2023/03/06 09:01:25;;;;;;;59.20;27.40;;;;;;;11.92;73.61;99940.25;4954026;29;20059;-67
2023/03/06 09:03:56;;;;;;;53.63;25.63;;;;;;;11.84;74.85;99930.84;4954678;29;20054;-66
2023/03/06 09:06:25;;;;;;;58.75;25.88;;;;;;;12.08;73.39;99927.09;4953882;29;20062;-67
2023/03/06 09:08:53;;;;;;;51.15;25.92;;;;;;;11.76;74.15;99923.31;4953458;29;20051;-67
2023/03/06 09:11:23;;;;;;;48.22;25.88;;;;;;;12.07;73.30;99934.50;4953848;29;20487;-66
2023/03/06 09:13:52;;;;;;;52.28;26.52;;;;;;;11.88;75.81;99922.81;4953498;29;20055;-65
2023/03/06 09:16:20;;;;;;;57.03;26.52;;;;;;;11.96;74.15;99920.16;4953814;29;20051;-64
2023/03/06 09:18:51;;;;;;;56.47;27.13;;;;;;;11.69;75.50;99929.19;4953400;29;20062;-64
2023/03/06 09:21:21;;;;;;;58.60;27.75;;;;;;;11.84;75.66;99922.59;4954242;29;20486;-64
2023/03/06 09:23:49;;;;;;;55.03;27.30;;;;;;;12.25;74.49;99922.88;4953139;29;20451;-64
2023/03/06 09:26:17;;;;;;;61.00;27.92;;;;;;;12.74;72.41;99909.44;4953580;29;20051;-63
2023/03/06 09:28:46;;;;;;;61.42;29.13;;;;;;;12.45;72.25;99922.44;4954182;29;20737;-65
2023/03/06 09:31:17;;;;;;;54.63;27.00;;;;;;;12.33;72.40;99919.44;4953361;29;20406;-64
2023/03/06 09:33:47;;;;;;;55.13;27.00;;;;;;;12.20;73.62;99915.59;4953446;29;20048;-63
2023/03/06 09:36:21;;;;;;;56.35;26.83;;;;;;;12.27;73.92;99915.97;4953054;29;20384;-64
2023/03/06 09:38:49;;;;;;;58.85;26.05;;;;;;;12.17;72.68;99910.72;4936643;29;20047;-64
2023/03/06 09:41:20;;;;;;;56.25;25.63;;;;;;;12.42;72.34;99917.56;4953379;29;20394;-64
2023/03/06 09:43:51;;;;;;;52.63;25.67;;;;;;;12.63;70.38;99920.66;4953189;29;20051;-63
2023/03/06 09:46:57;;;;;;;51.17;24.85;;;;;;;13.16;69.36;99918.28;4952894;28;20059;-64
2023/03/06 09:49:41;;;;;;;58.65;24.13;;;;;;;13.19;67.48;99918.81;4931981;29;20055;-66
2023/03/06 09:52:24;;;;;;;52.00;23.52;;;;;;;12.69;68.05;99920.53;4932677;29;20044;-65
2023/03/06 09:54:56;;;;;;;54.08;23.23;;;;;;;13.01;68.45;99911.25;4931761;29;20056;-65
2023/03/06 09:57:34;;;;;;;48.35;23.42;;;;;;;13.20;69.39;99915.72;4932949;29;20051;-65
2023/03/06 10:00:13;;;;;;;49.92;24.63;;;;;;;13.67;66.77;99909.88;4933406;29;20055;-65
2023/03/06 10:02:59;;;;;;;45.45;21.27;;;;;;;13.50;68.40;99907.03;4932843;29;20281;-65
2023/03/06 10:05:41;;;;;;;50.67;21.02;;;;;;;13.70;65.78;99902.91;4934444;29;20494;-65
2023/03/06 10:08:29;;;;;;;50.28;22.67;;;;;;;13.56;67.13;99916.78;4932743;29;20059;-64
2023/03/06 10:11:12;;;;;;;47.15;21.98;;;;;;;13.56;67.68;99911.28;4933807;29;20160;-65
2023/03/06 10:13:47;;;;;;;49.33;21.63;;;;;;;13.63;67.33;99919.88;4933430;29;20051;-65
2023/03/06 10:16:28;;;;;;;45.30;22.15;;;;;;;13.93;65.76;99914.63;4933219;29;20511;-65
2023/03/06 10:19:03;;;;;;;44.50;23.60;;;;;;;13.84;64.51;99914.59;4934299;29;20055;-65
2023/03/06 10:21:49;;;;;;;43.47;20.67;;;;;;;13.93;64.88;99917.38;4933937;29;20052;-66
2023/03/06 10:24:58;;;;;;;39.15;21.55;;;;;;;13.96;66.48;99916.75;4934427;29;20055;-66
2023/03/06 10:27:47;;;;;;;46.53;21.77;;;;;;;14.57;62.70;99911.69;4889175;29;20051;-66
2023/03/06 10:30:37;;;;;;;43.70;21.27;;;;;;;14.37;61.93;99914.72;4934097;29;20056;-65
2023/03/06 10:33:35;;;;;;;47.88;21.10;;;;;;;14.61;61.87;99904.38;4933679;29;20055;-66
2023/03/06 10:36:03;;;;;;;39.80;18.55;;;;;;;13.79;66.20;99912.00;4917083;29;20055;-66
2023/03/06 10:38:31;;;;;;;38.33;20.13;;;;;;;13.74;64.50;99903.09;4933930;29;20043;-66
2023/03/06 10:41:11;;;;;;;41.08;19.10;;;;;;;14.39;63.58;99903.41;4934038;29;20052;-66
2023/03/06 10:43:42;;;;;;;41.53;19.40;;;;;;;13.73;66.06;99904.22;4933059;29;20048;-66
2023/03/06 10:46:13;;;;;;;40.58;19.25;;;;;;;14.38;63.99;99896.28;4934189;29;20486;-66
2023/03/06 10:48:41;;;;;;;47.85;20.67;;;;;;;14.24;63.53;99888.97;4934314;29;20052;-66
2023/03/06 10:51:20;;;;;;;43.47;19.45;;;;;;;14.71;62.87;99895.78;4934208;29;20051;-66
2023/03/06 10:53:49;;;;;;;43.55;21.23;;;;;;;14.33;62.28;99896.44;4934359;29;20059;-66
2023/03/06 10:56:28;;;;;;;44.22;21.63;;;;;;;13.93;64.82;99889.09;4934227;29;20044;-66
2023/03/06 10:59:11;;;;;;;41.22;19.88;;;;;;;14.10;64.46;99889.13;4933875;29;20056;-67
2023/03/06 11:01:41;;;;;;;44.15;19.85;;;;;;;14.00;64.44;99889.44;4934068;29;20056;-66
2023/03/06 11:04:29;;;;;;;42.20;19.40;;;;;;;14.50;63.21;99887.38;4933724;29;20059;-66
2023/03/06 11:07:15;;;;;;;33.15;17.52;;;;;;;14.89;60.03;99880.09;4934206;29;20051;-66
2023/03/06 11:09:56;;;;;;;38.90;19.25;;;;;;;15.70;58.00;99881.47;4934255;29;20475;-66
2023/03/06 11:12:31;;;;;;;35.85;18.10;;;;;;;15.80;55.58;99881.06;4934439;29;20074;-67
2023/03/06 11:15:16;;;;;;;37.25;18.42;;;;;;;15.33;56.62;99881.94;4936664;29;20414;-66
2023/03/06 11:18:04;;;;;;;38.95;17.98;;;;;;;14.95;59.51;99882.69;4920716;29;20048;-67
2023/03/06 11:20:41;;;;;;;39.97;19.77;;;;;;;14.74;60.19;99878.66;4937528;29;20058;-66
2023/03/06 11:23:40;;;;;;;46.28;20.30;;;;;;;14.91;60.80;99866.00;4937004;29;20102;-66
2023/03/06 11:26:16;;;;;;;36.53;18.15;;;;;;;15.59;58.97;99868.03;4937141;29;20055;-66
2023/03/06 11:29:22;;;;;;;37.85;17.58;;;;;;;15.48;57.73;99864.03;4936419;29;20067;-66
2023/03/06 11:32:04;;;;;;;39.05;19.33;;;;;;;16.58;52.79;99863.53;4937209;29;20043;-67
2023/03/06 11:34:39;;;;;;;35.67;17.60;;;;;;;15.85;54.66;99864.34;4937278;29;20056;-67
2023/03/06 11:37:19;;;;;;;39.83;18.33;;;;;;;16.24;54.27;99860.72;4941073;29;20039;-66
2023/03/06 11:40:25;;;;;;;35.05;17.45;;;;;;;15.75;55.60;99858.41;4954620;29;20059;-67
2023/03/06 11:43:04;;;;;;;36.00;18.27;;;;;;;16.06;54.76;99860.84;4937742;29;20051;-67